Time;durP1;ratioP1;P1;durP2;ratioP2;P2;SDS_P1;SDS_P2;PMS_P1;PMS_P2;Temp;Humidity;BMP_temperature;BMP_pressure;BME280_temperature;BME280_humidity;BME280_pressure;Samples;Min_cycle;Max_cycle;Signal;HPM_P1;HPM_P2
2024/03/14 00:01:27;;;;;;;47.65;27.55;;;10.20;99.90;;;;;;4963796;28;20047;-69
2024/03/14 00:03:55;;;;;;;42.95;25.67;;;10.20;99.90;;;;;;4982295;28;20533;-70
2024/03/14 00:06:22;;;;;;;44.53;26.15;;;10.20;99.90;;;;;;4968823;28;20259;-71
2024/03/14 00:08:49;;;;;;;42.42;25.90;;;10.20;99.90;;;;;;4967823;28;20054;-69
2024/03/14 00:11:18;;;;;;;45.90;26.48;;;10.20;99.90;;;;;;4964690;28;20046;-71
2024/03/14 00:13:45;;;;;;;45.42;27.20;;;10.20;99.90;;;;;;4951393;28;20061;-70
2024/03/14 00:16:14;;;;;;;43.20;26.83;;;10.20;99.90;;;;;;4969346;28;20042;-72
2024/03/14 00:18:41;;;;;;;42.85;27.02;;;10.30;99.90;;;;;;4959600;28;20046;-71
2024/03/14 00:21:10;;;;;;;44.08;26.70;;;10.30;99.90;;;;;;4970014;28;20042;-71
2024/03/14 00:23:39;;;;;;;47.22;27.88;;;10.30;99.90;;;;;;4965910;28;20173;-71
2024/03/14 00:26:09;;;;;;;48.05;28.88;;;10.30;99.90;;;;;;4971185;28;20121;-72
2024/03/14 00:28:36;;;;;;;45.17;26.52;;;10.30;99.90;;;;;;4961443;28;20150;-71
2024/03/14 00:31:04;;;;;;;48.42;26.80;;;10.30;99.90;;;;;;4967041;28;20043;-71
2024/03/14 00:33:31;;;;;;;42.78;25.42;;;10.30;99.90;;;;;;4967002;28;20045;-70
2024/03/14 00:35:58;;;;;;;41.75;25.08;;;10.30;99.90;;;;;;4964663;28;20050;-71
2024/03/14 00:38:26;;;;;;;40.17;24.90;;;10.30;99.90;;;;;;4965632;28;20042;-70
2024/03/14 00:40:53;;;;;;;42.47;26.38;;;10.30;99.90;;;;;;4968593;28;20436;-71
2024/03/14 00:43:21;;;;;;;39.38;26.95;;;10.30;99.90;;;;;;4949924;28;20043;-70
2024/03/14 00:45:48;;;;;;;45.03;27.83;;;10.30;99.90;;;;;;4968369;28;20048;-69
2024/03/14 00:48:15;;;;;;;40.00;25.48;;;10.30;99.90;;;;;;4972873;28;20298;-70
2024/03/14 00:50:44;;;;;;;41.45;26.98;;;10.30;99.90;;;;;;4968090;28;20042;-71
2024/03/14 00:53:11;;;;;;;37.35;26.05;;;10.30;99.90;;;;;;4963811;28;20050;-71
2024/03/14 00:55:38;;;;;;;38.60;25.27;;;10.30;99.90;;;;;;4964911;28;20054;-71
2024/03/14 00:58:06;;;;;;;42.78;25.67;;;10.30;99.90;;;;;;4973565;28;20220;-71
2024/03/14 01:00:33;;;;;;;43.20;26.60;;;10.30;99.90;;;;;;4965187;28;20066;-69
2024/03/14 01:03:01;;;;;;;38.83;25.73;;;10.30;99.90;;;;;;4965480;28;20592;-69
2024/03/14 01:05:28;;;;;;;39.88;25.13;;;10.40;99.90;;;;;;4965913;28;20046;-69
2024/03/14 01:07:55;;;;;;;42.13;26.92;;;10.40;99.90;;;;;;4966445;28;20152;-71
2024/03/14 01:10:22;;;;;;;42.58;26.35;;;10.30;99.90;;;;;;4966097;28;20046;-70
2024/03/14 01:12:49;;;;;;;40.70;25.10;;;10.30;99.90;;;;;;4965950;28;20054;-69
2024/03/14 01:15:17;;;;;;;40.05;27.30;;;10.30;99.90;;;;;;4974716;28;20652;-71
2024/03/14 01:17:45;;;;;;;41.03;26.30;;;10.30;99.90;;;;;;4970426;28;20099;-71
2024/03/14 01:20:16;;;;;;;41.17;26.77;;;10.30;99.90;;;;;;4951922;28;20035;-71
2024/03/14 01:22:43;;;;;;;42.80;27.38;;;10.20;99.90;;;;;;4971364;28;20050;-70
2024/03/14 01:25:10;;;;;;;38.42;25.30;;;10.20;99.90;;;;;;4969203;28;20072;-70
2024/03/14 01:27:37;;;;;;;42.95;26.90;;;10.30;99.90;;;;;;4972415;28;20139;-70
2024/03/14 01:30:11;;;;;;;39.17;26.92;;;10.30;99.90;;;;;;4969589;28;20050;-71
2024/03/14 01:32:42;;;;;;;43.07;24.73;;;10.30;99.90;;;;;;4967195;28;20129;-71
2024/03/14 01:35:09;;;;;;;43.20;28.42;;;10.30;99.90;;;;;;4969524;28;20413;-71
2024/03/14 01:37:36;;;;;;;39.00;26.67;;;10.30;99.90;;;;;;4972158;28;20133;-70
2024/03/14 01:40:03;;;;;;;40.20;26.60;;;10.30;99.90;;;;;;4972096;28;20046;-71
2024/03/14 01:42:31;;;;;;;40.35;27.10;;;10.30;99.90;;;;;;4964790;28;20857;-71
2024/03/14 01:45:05;;;;;;;39.35;27.88;;;10.30;99.90;;;;;;4967735;28;20046;-72
2024/03/14 01:47:33;;;;;;;41.00;27.47;;;10.40;99.90;;;;;;4971450;28;20163;-71
2024/03/14 01:50:05;;;;;;;45.22;27.98;;;10.40;99.90;;;;;;4970040;28;20049;-71
2024/03/14 01:52:34;;;;;;;45.92;29.13;;;10.40;99.90;;;;;;4969827;28;20054;-71
2024/03/14 01:55:05;;;;;;;46.92;28.63;;;10.40;99.90;;;;;;4966583;28;20133;-70
2024/03/14 01:57:32;;;;;;;41.67;27.60;;;10.40;99.90;;;;;;4967782;28;20054;-70
2024/03/14 02:00:01;;;;;;;41.35;29.02;;;10.40;99.90;;;;;;4971260;28;20046;-71
2024/03/14 02:02:37;;;;;;;45.28;29.50;;;10.40;99.90;;;;;;4974256;28;20046;-71
2024/03/14 02:05:27;;;;;;;45.60;29.77;;;10.40;99.90;;;;;;4972672;28;20159;-70
2024/03/14 02:07:55;;;;;;;42.22;28.35;;;10.40;99.90;;;;;;4963024;28;20054;-71
2024/03/14 02:10:24;;;;;;;39.35;27.60;;;10.40;99.90;;;;;;4971754;28;20057;-71
2024/03/14 02:12:53;;;;;;;43.75;29.52;;;10.30;99.90;;;;;;4967846;28;21479;-71
2024/03/14 02:15:24;;;;;;;42.35;29.33;;;10.30;99.90;;;;;;4986853;28;20057;-71
2024/03/14 02:17:52;;;;;;;42.08;27.63;;;10.30;99.90;;;;;;4965194;28;20960;-71
2024/03/14 02:20:20;;;;;;;42.38;27.92;;;10.30;99.90;;;;;;4989075;28;20034;-71
2024/03/14 02:22:47;;;;;;;43.20;28.30;;;10.20;99.90;;;;;;4969593;28;20053;-70
2024/03/14 02:25:15;;;;;;;40.47;27.35;;;10.30;99.90;;;;;;4968212;28;20081;-70
2024/03/14 02:27:42;;;;;;;39.42;27.20;;;10.30;99.90;;;;;;4952795;28;20705;-71
2024/03/14 02:30:09;;;;;;;40.38;27.05;;;10.30;99.90;;;;;;4969331;28;20051;-71
2024/03/14 02:32:36;;;;;;;42.85;27.77;;;10.30;99.90;;;;;;4967244;28;20520;-70
2024/03/14 02:35:04;;;;;;;40.92;27.73;;;10.40;99.90;;;;;;4959393;28;20046;-70
2024/03/14 02:37:32;;;;;;;43.78;28.80;;;10.30;99.90;;;;;;4969623;28;20065;-70
2024/03/14 02:39:59;;;;;;;40.83;27.20;;;10.30;99.90;;;;;;4963645;28;20069;-71
2024/03/14 02:42:27;;;;;;;37.78;27.08;;;10.30;99.90;;;;;;4971808;28;20092;-70
2024/03/14 02:44:54;;;;;;;40.78;28.77;;;10.30;99.90;;;;;;4969952;28;20906;-71
2024/03/14 02:47:21;;;;;;;39.13;27.05;;;10.20;99.90;;;;;;4969895;28;20519;-70
2024/03/14 02:49:49;;;;;;;42.33;29.92;;;10.20;99.90;;;;;;4965957;28;20562;-71
2024/03/14 02:52:16;;;;;;;41.45;27.95;;;10.20;99.90;;;;;;4972467;28;20064;-71
2024/03/14 02:54:43;;;;;;;48.22;31.00;;;10.20;99.90;;;;;;4969883;28;20137;-70
2024/03/14 02:57:11;;;;;;;37.53;27.00;;;10.30;99.90;;;;;;4966749;28;20038;-71
2024/03/14 02:59:39;;;;;;;41.78;28.52;;;10.30;99.90;;;;;;4969380;28;20050;-71
2024/03/14 03:02:10;;;;;;;40.17;28.88;;;10.30;99.90;;;;;;4969127;28;20049;-70
2024/03/14 03:04:38;;;;;;;34.05;26.70;;;10.30;99.90;;;;;;4951064;28;20068;-70
2024/03/14 03:07:06;;;;;;;39.47;28.85;;;10.30;99.90;;;;;;4962497;28;20459;-70
2024/03/14 03:09:37;;;;;;;38.03;28.38;;;10.30;99.90;;;;;;4967589;28;20081;-70
2024/03/14 03:12:05;;;;;;;46.30;29.90;;;10.40;99.90;;;;;;4969545;28;20188;-70
2024/03/14 03:14:32;;;;;;;39.05;30.35;;;10.40;99.90;;;;;;4953836;28;20062;-69
2024/03/14 03:16:59;;;;;;;39.20;30.90;;;10.40;99.90;;;;;;4963962;28;20050;-71
2024/03/14 03:19:26;;;;;;;39.88;30.67;;;10.40;99.90;;;;;;4979534;28;20038;-70
2024/03/14 03:21:53;;;;;;;34.42;28.65;;;10.30;99.90;;;;;;4959419;28;20046;-70
2024/03/14 03:24:21;;;;;;;37.55;28.98;;;10.30;99.90;;;;;;4966796;28;20046;-71
2024/03/14 03:26:48;;;;;;;35.65;28.20;;;10.30;99.90;;;;;;4964144;28;20754;-70
2024/03/14 03:29:16;;;;;;;33.70;27.30;;;10.30;99.90;;;;;;4961891;28;20493;-70
2024/03/14 03:31:44;;;;;;;33.53;28.83;;;10.30;99.90;;;;;;4964499;28;20078;-68
2024/03/14 03:34:11;;;;;;;37.05;27.95;;;10.40;99.90;;;;;;4965119;28;20053;-71
2024/03/14 03:36:39;;;;;;;41.10;28.33;;;10.30;99.90;;;;;;4935616;28;20065;-70
2024/03/14 03:39:12;;;;;;;39.42;29.75;;;10.40;99.90;;;;;;4948566;28;20059;-70
2024/03/14 03:41:40;;;;;;;40.60;28.05;;;10.30;99.90;;;;;;4959503;28;20058;-71
2024/03/14 03:44:08;;;;;;;34.92;27.90;;;10.30;99.90;;;;;;4949360;28;20543;-71
2024/03/14 03:46:42;;;;;;;36.65;26.95;;;10.20;99.90;;;;;;4952799;28;20046;-71
2024/03/14 03:49:09;;;;;;;34.63;26.43;;;10.10;99.90;;;;;;4960005;28;20130;-71
2024/03/14 03:51:36;;;;;;;35.45;26.15;;;10.00;99.90;;;;;;4956322;28;20197;-71
2024/03/14 03:54:29;;;;;;;39.95;27.65;;;10.00;99.90;;;;;;4954855;28;20050;-70
2024/03/14 03:56:56;;;;;;;35.13;25.98;;;10.00;99.90;;;;;;4946173;28;20062;-70
2024/03/14 03:59:25;;;;;;;38.47;26.33;;;10.00;99.90;;;;;;4951009;28;20053;-70
2024/03/14 04:01:52;;;;;;;32.42;26.50;;;9.90;99.90;;;;;;4948256;28;20583;-71
2024/03/14 04:04:19;;;;;;;38.75;27.05;;;9.90;99.90;;;;;;4948180;28;20741;-71
2024/03/14 04:06:47;;;;;;;37.85;27.00;;;9.90;99.90;;;;;;4953198;28;20500;-71
2024/03/14 04:09:16;;;;;;;32.85;26.48;;;9.90;99.90;;;;;;4953127;28;20096;-71
2024/03/14 04:11:44;;;;;;;37.88;26.95;;;9.90;99.90;;;;;;4948248;28;20617;-71
2024/03/14 04:14:11;;;;;;;35.30;27.55;;;9.90;99.90;;;;;;4946278;28;20164;-70
2024/03/14 04:16:38;;;;;;;45.42;28.50;;;9.90;99.90;;;;;;4950131;28;20678;-71
2024/03/14 04:19:06;;;;;;;37.40;27.40;;;9.90;99.90;;;;;;4958267;28;20049;-70
2024/03/14 04:21:33;;;;;;;36.63;27.00;;;9.90;99.90;;;;;;4938244;28;20039;-70
2024/03/14 04:24:01;;;;;;;36.03;26.08;;;9.80;99.90;;;;;;4949104;28;21186;-68
2024/03/14 04:26:28;;;;;;;34.35;25.92;;;9.80;99.90;;;;;;4945873;28;20043;-71
2024/03/14 04:28:55;;;;;;;41.53;27.63;;;9.80;99.90;;;;;;4942231;28;20058;-71
2024/03/14 04:31:22;;;;;;;37.67;27.05;;;9.70;99.90;;;;;;4949242;28;20043;-70
2024/03/14 04:33:49;;;;;;;41.72;27.75;;;9.70;99.90;;;;;;4949595;28;20104;-69
2024/03/14 04:36:18;;;;;;;43.28;27.73;;;9.80;99.90;;;;;;4946426;28;20047;-71
2024/03/14 04:38:47;;;;;;;39.72;28.35;;;9.80;99.90;;;;;;4932105;28;20070;-69
2024/03/14 04:41:14;;;;;;;40.70;28.67;;;9.70;99.90;;;;;;4952548;28;20074;-71
2024/03/14 04:43:46;;;;;;;42.22;28.88;;;9.70;99.90;;;;;;4946765;28;20690;-70
2024/03/14 04:46:13;;;;;;;42.00;30.42;;;9.80;99.90;;;;;;4943378;28;20047;-71
2024/03/14 04:48:41;;;;;;;42.20;29.73;;;9.80;99.90;;;;;;4953794;28;20141;-71
2024/03/14 04:51:11;;;;;;;42.22;29.95;;;9.80;99.90;;;;;;4932694;28;20059;-71
2024/03/14 04:53:40;;;;;;;40.45;30.17;;;9.80;99.90;;;;;;4953720;28;20050;-71
2024/03/14 04:56:08;;;;;;;40.70;28.08;;;9.80;99.90;;;;;;4969109;28;20046;-71
2024/03/14 04:58:37;;;;;;;46.25;32.13;;;9.80;99.90;;;;;;4956624;28;20057;-71
2024/03/14 05:01:04;;;;;;;42.65;28.13;;;9.90;99.90;;;;;;4931983;28;20065;-71
2024/03/14 05:03:31;;;;;;;46.03;29.35;;;9.80;99.90;;;;;;4958060;28;20054;-71
2024/03/14 05:05:59;;;;;;;45.47;29.52;;;9.80;99.90;;;;;;4950917;28;20043;-69
2024/03/14 05:08:27;;;;;;;42.58;27.15;;;9.80;99.90;;;;;;4959068;28;20050;-70
2024/03/14 05:10:54;;;;;;;51.58;31.23;;;9.80;99.90;;;;;;4958105;28;20043;-71
2024/03/14 05:13:21;;;;;;;43.38;27.50;;;9.70;99.90;;;;;;4970731;28;20121;-70
2024/03/14 05:15:51;;;;;;;43.78;27.30;;;9.70;99.90;;;;;;4956463;28;20051;-71
2024/03/14 05:18:18;;;;;;;42.38;25.95;;;9.60;99.90;;;;;;4960974;28;20152;-71
2024/03/14 05:20:45;;;;;;;46.45;27.05;;;9.60;99.90;;;;;;4948726;28;20134;-70
2024/03/14 05:23:13;;;;;;;41.17;25.77;;;9.70;99.90;;;;;;4952042;28;20073;-70
2024/03/14 05:25:40;;;;;;;42.10;28.17;;;9.60;99.90;;;;;;4957452;28;20134;-71
2024/03/14 05:28:07;;;;;;;46.78;27.23;;;9.60;99.90;;;;;;4958677;28;20078;-70
2024/03/14 05:30:34;;;;;;;44.97;28.08;;;9.70;99.90;;;;;;4936640;28;20054;-70
2024/03/14 05:33:02;;;;;;;45.00;28.00;;;9.70;99.90;;;;;;4953260;28;20037;-70
2024/03/14 05:35:29;;;;;;;47.22;30.25;;;9.70;99.90;;;;;;4970573;28;20047;-70
2024/03/14 05:37:55;;;;;;;39.53;27.00;;;9.70;99.90;;;;;;4957414;28;20034;-70
2024/03/14 05:40:22;;;;;;;46.40;28.77;;;9.70;99.90;;;;;;4953936;28;20233;-70
2024/03/14 05:42:52;;;;;;;45.50;29.80;;;9.70;99.90;;;;;;4957716;28;20043;-70
2024/03/14 05:45:19;;;;;;;39.10;28.70;;;9.80;99.90;;;;;;4945496;28;20935;-70
2024/03/14 05:47:48;;;;;;;42.38;29.70;;;9.90;99.90;;;;;;4958531;28;20546;-70
2024/03/14 05:50:15;;;;;;;42.60;29.83;;;9.80;99.90;;;;;;4951304;28;20050;-71
2024/03/14 05:52:43;;;;;;;44.33;30.08;;;9.80;99.90;;;;;;4944404;28;20058;-71
2024/03/14 05:55:10;;;;;;;49.05;31.75;;;9.90;99.90;;;;;;4944374;28;20058;-70
2024/03/14 05:57:38;;;;;;;43.97;30.38;;;9.90;99.90;;;;;;4952874;28;20701;-70
2024/03/14 06:00:05;;;;;;;47.47;29.90;;;10.00;99.90;;;;;;4950708;28;20053;-70
2024/03/14 06:02:38;;;;;;;47.13;30.27;;;9.90;99.90;;;;;;4974257;28;20054;-70
2024/03/14 06:05:07;;;;;;;42.92;30.70;;;9.90;99.90;;;;;;4964414;28;20054;-70
2024/03/14 06:07:34;;;;;;;43.13;31.25;;;9.90;99.90;;;;;;4973520;28;20050;-70
2024/03/14 06:10:03;;;;;;;53.10;36.88;;;9.90;99.90;;;;;;4949768;28;20086;-70
2024/03/14 06:12:30;;;;;;;45.25;33.70;;;10.00;99.90;;;;;;4970879;28;20515;-69
2024/03/14 06:14:58;;;;;;;44.90;35.35;;;10.10;99.90;;;;;;4969838;28;20699;-70
2024/03/14 06:17:25;;;;;;;45.33;32.95;;;10.10;99.90;;;;;;4971470;28;20241;-71
2024/03/14 06:19:52;;;;;;;43.05;32.38;;;10.00;99.90;;;;;;4963126;28;20108;-71
2024/03/14 06:22:19;;;;;;;39.00;30.30;;;10.00;99.90;;;;;;4967831;28;20043;-70
2024/03/14 06:24:46;;;;;;;44.95;32.35;;;10.10;99.90;;;;;;4975744;28;20042;-70
2024/03/14 06:27:14;;;;;;;44.15;30.77;;;10.10;99.90;;;;;;4957424;28;20101;-71
2024/03/14 06:29:44;;;;;;;41.00;31.15;;;10.20;99.90;;;;;;4965866;28;20046;-70
2024/03/14 06:32:11;;;;;;;40.70;31.13;;;10.30;99.90;;;;;;4973236;28;20165;-70
2024/03/14 06:34:38;;;;;;;35.67;29.77;;;10.30;99.90;;;;;;4972928;28;20081;-70
2024/03/14 06:37:06;;;;;;;39.70;30.45;;;10.40;99.90;;;;;;4969643;28;20053;-70
2024/03/14 06:39:34;;;;;;;38.83;32.40;;;10.50;99.90;;;;;;4961045;28;20204;-71
2024/03/14 06:42:06;;;;;;;40.53;33.60;;;10.70;99.90;;;;;;4973625;28;20042;-71
2024/03/14 06:44:33;;;;;;;38.55;33.33;;;10.70;99.90;;;;;;4965856;28;20058;-70
2024/03/14 06:47:01;;;;;;;38.15;33.97;;;10.80;99.90;;;;;;4967433;28;20049;-69
2024/03/14 06:49:29;;;;;;;39.28;34.38;;;10.80;99.90;;;;;;4971798;28;21062;-71
2024/03/14 06:51:57;;;;;;;38.83;34.75;;;10.80;99.90;;;;;;4979136;28;20046;-70
2024/03/14 06:54:25;;;;;;;39.03;34.80;;;10.90;99.90;;;;;;4967696;28;20073;-70
2024/03/14 06:56:53;;;;;;;41.70;34.28;;;10.90;99.90;;;;;;4969551;28;20045;-70
2024/03/14 06:59:20;;;;;;;39.35;33.08;;;11.00;99.90;;;;;;4972644;28;20042;-70
2024/03/14 07:01:47;;;;;;;37.80;33.00;;;10.90;99.90;;;;;;4964301;28;20055;-71
2024/03/14 07:04:14;;;;;;;36.88;32.90;;;11.00;99.90;;;;;;4967047;28;20054;-71
2024/03/14 07:06:42;;;;;;;37.70;33.85;;;10.90;99.90;;;;;;4970995;28;20046;-70
2024/03/14 07:09:09;;;;;;;38.35;33.50;;;10.80;99.90;;;;;;4970407;28;20112;-68
2024/03/14 07:11:37;;;;;;;35.97;32.08;;;10.70;99.90;;;;;;4949631;28;20046;-70
2024/03/14 07:14:04;;;;;;;35.65;31.75;;;10.70;99.90;;;;;;4967093;28;20046;-70
2024/03/14 07:16:33;;;;;;;38.03;31.08;;;10.80;99.90;;;;;;4971078;28;20050;-71
2024/03/14 07:19:01;;;;;;;34.70;30.98;;;10.70;99.90;;;;;;4952259;28;20045;-70
2024/03/14 07:21:28;;;;;;;36.17;32.33;;;10.70;99.90;;;;;;4971052;28;20717;-70
2024/03/14 07:23:56;;;;;;;40.70;33.22;;;10.80;99.90;;;;;;4973363;28;20042;-69
2024/03/14 07:26:24;;;;;;;35.05;31.55;;;10.80;99.90;;;;;;4970346;28;20046;-71
2024/03/14 07:28:57;;;;;;;36.97;33.03;;;10.90;99.90;;;;;;4965923;28;20050;-71
2024/03/14 07:31:30;;;;;;;39.58;33.67;;;10.90;99.90;;;;;;4968760;28;20117;-71
2024/03/14 07:34:00;;;;;;;38.15;34.33;;;10.90;99.90;;;;;;4969293;28;20704;-70
2024/03/14 07:36:29;;;;;;;39.28;35.35;;;10.90;99.90;;;;;;4962949;28;20046;-71
2024/03/14 07:38:57;;;;;;;38.13;34.13;;;10.90;99.90;;;;;;4965767;28;20513;-71
2024/03/14 07:41:27;;;;;;;37.75;33.97;;;10.80;99.90;;;;;;4971046;28;20042;-71
2024/03/14 07:43:56;;;;;;;38.58;34.38;;;10.80;99.90;;;;;;4966029;28;20625;-70
2024/03/14 07:46:27;;;;;;;38.22;34.33;;;10.80;99.90;;;;;;4970403;28;20053;-70
2024/03/14 07:48:54;;;;;;;37.03;33.35;;;10.80;99.90;;;;;;4968312;28;20565;-69
2024/03/14 07:51:21;;;;;;;37.95;33.95;;;10.70;99.90;;;;;;4968017;28;20049;-70
2024/03/14 07:53:49;;;;;;;37.00;33.30;;;10.80;99.90;;;;;;4969170;28;20086;-70
2024/03/14 07:56:17;;;;;;;35.53;31.63;;;10.70;99.90;;;;;;4968045;28;20088;-70
2024/03/14 07:58:46;;;;;;;36.83;32.85;;;10.80;99.90;;;;;;4968219;28;20065;-71
2024/03/14 08:01:16;;;;;;;39.53;35.03;;;10.80;99.90;;;;;;4963367;28;20548;-70
2024/03/14 08:03:45;;;;;;;38.67;34.42;;;10.90;99.90;;;;;;4978777;28;20157;-71
2024/03/14 08:06:16;;;;;;;36.28;32.78;;;10.90;99.90;;;;;;4961610;28;20234;-71
2024/03/14 08:08:44;;;;;;;37.17;33.67;;;11.10;99.90;;;;;;4966382;28;20050;-70
2024/03/14 08:11:12;;;;;;;38.00;34.55;;;11.30;99.90;;;;;;4951110;28;20043;-70
2024/03/14 08:13:40;;;;;;;38.33;34.95;;;11.30;99.90;;;;;;4971089;28;20104;-71
2024/03/14 08:16:14;;;;;;;38.72;34.95;;;11.50;99.90;;;;;;4972553;28;20436;-71
2024/03/14 08:18:42;;;;;;;39.00;35.22;;;11.60;99.90;;;;;;4965581;28;20050;-71
2024/03/14 08:21:09;;;;;;;42.78;38.90;;;11.70;99.90;;;;;;4965896;28;20549;-69
2024/03/14 08:23:37;;;;;;;41.35;37.85;;;11.90;99.90;;;;;;4972412;28;20050;-70
2024/03/14 08:26:06;;;;;;;42.72;38.88;;;12.10;99.90;;;;;;4974174;28;20050;-71
2024/03/14 08:28:38;;;;;;;43.67;40.08;;;12.10;99.90;;;;;;4969765;28;20165;-71
2024/03/14 08:31:06;;;;;;;42.80;39.35;;;12.30;99.90;;;;;;4969638;28;20060;-70
2024/03/14 08:33:36;;;;;;;47.60;42.88;;;12.40;99.90;;;;;;4955231;28;22754;-70
2024/03/14 08:36:04;;;;;;;47.42;43.67;;;12.50;99.90;;;;;;4965094;28;20618;-71
2024/03/14 08:38:31;;;;;;;48.40;44.50;;;12.50;99.90;;;;;;4970923;28;20657;-69
2024/03/14 08:40:58;;;;;;;48.50;44.83;;;12.70;99.90;;;;;;4984402;28;20586;-70
2024/03/14 08:43:25;;;;;;;45.22;41.83;;;13.00;99.90;;;;;;4972254;28;20038;-70
2024/03/14 08:45:52;;;;;;;43.72;40.40;;;13.10;99.90;;;;;;4972259;28;20053;-70
2024/03/14 08:48:22;;;;;;;49.28;45.60;;;13.10;99.90;;;;;;4969700;28;20050;-70
2024/03/14 08:50:50;;;;;;;42.15;39.08;;;13.30;99.90;;;;;;4982772;28;20074;-70
2024/03/14 08:53:17;;;;;;;44.25;41.08;;;13.50;99.90;;;;;;4973183;28;20223;-70
2024/03/14 08:55:56;;;;;;;42.03;39.10;;;13.40;99.90;;;;;;4975832;28;20516;-69
2024/03/14 08:58:29;;;;;;;39.80;36.78;;;13.50;99.90;;;;;;4969464;28;20642;-71
2024/03/14 09:00:58;;;;;;;39.55;36.38;;;13.50;99.90;;;;;;4972896;28;20141;-69
2024/03/14 09:03:25;;;;;;;39.05;36.15;;;13.70;99.90;;;;;;4970359;28;20050;-71
2024/03/14 09:05:53;;;;;;;40.85;37.75;;;13.90;99.90;;;;;;4967410;28;20077;-71
2024/03/14 09:08:24;;;;;;;39.30;36.33;;;14.20;99.90;;;;;;4968628;28;20094;-70
2024/03/14 09:10:53;;;;;;;42.88;39.17;;;14.40;99.90;;;;;;4974046;28;20141;-71
2024/03/14 09:13:20;;;;;;;47.22;43.83;;;14.50;99.90;;;;;;4966119;28;20856;-70
2024/03/14 09:15:50;;;;;;;48.10;44.33;;;14.50;99.90;;;;;;4973901;28;20133;-71
2024/03/14 09:18:24;;;;;;;45.33;42.38;;;14.40;99.90;;;;;;4972983;28;20050;-71
2024/03/14 09:20:55;;;;;;;46.33;43.33;;;14.60;99.90;;;;;;4978151;28;20538;-71
2024/03/14 09:23:28;;;;;;;46.55;43.50;;;14.60;99.90;;;;;;4974540;28;20042;-71
2024/03/14 09:25:57;;;;;;;43.30;40.17;;;14.50;99.90;;;;;;4973711;28;20100;-71
2024/03/14 09:28:26;;;;;;;48.97;45.88;;;14.30;99.90;;;;;;4955735;28;20047;-70
2024/03/14 09:30:57;;;;;;;37.90;35.03;;;14.20;99.90;;;;;;4978547;28;20124;-70
2024/03/14 09:33:28;;;;;;;39.08;36.17;;;14.00;99.90;;;;;;4973683;28;20514;-69
2024/03/14 09:35:55;;;;;;;36.08;33.13;;;13.80;99.90;;;;;;4968298;28;20046;-69
2024/03/14 09:38:22;;;;;;;37.75;34.53;;;13.70;99.90;;;;;;4972839;28;20094;-70
2024/03/14 09:40:50;;;;;;;38.60;35.75;;;13.70;99.90;;;;;;4966356;28;20063;-71
2024/03/14 09:43:23;;;;;;;36.72;33.88;;;13.80;99.90;;;;;;4966888;28;20054;-69
2024/03/14 09:45:54;;;;;;;37.20;34.13;;;13.70;99.90;;;;;;4978464;28;20073;-71
2024/03/14 09:48:26;;;;;;;38.35;35.28;;;13.70;99.90;;;;;;4971787;28;21178;-70
2024/03/14 09:50:56;;;;;;;38.30;35.10;;;13.70;99.90;;;;;;4984327;28;20075;-70
2024/03/14 09:53:27;;;;;;;37.15;34.13;;;13.60;99.90;;;;;;4958301;28;20050;-70
2024/03/14 09:55:54;;;;;;;37.88;34.97;;;13.50;99.90;;;;;;4973449;28;20101;-71
2024/03/14 09:58:21;;;;;;;38.08;34.78;;;13.40;99.90;;;;;;4972610;28;20083;-68
2024/03/14 10:00:52;;;;;;;37.33;33.95;;;13.60;99.90;;;;;;4971456;28;20467;-71
2024/03/14 10:03:22;;;;;;;39.42;36.15;;;13.60;99.90;;;;;;4970301;28;20136;-69
2024/03/14 10:05:52;;;;;;;36.45;33.30;;;13.70;99.90;;;;;;4982223;28;20070;-70
2024/03/14 10:08:20;;;;;;;41.22;37.33;;;13.90;99.90;;;;;;4974457;28;20048;-72
2024/03/14 10:10:46;;;;;;;38.00;34.85;;;14.00;99.90;;;;;;4973370;28;20173;-69
2024/03/14 10:13:26;;;;;;;37.22;34.22;;;14.10;99.90;;;;;;4964735;28;20066;-70
2024/03/14 10:15:54;;;;;;;36.78;33.97;;;13.90;99.90;;;;;;4961187;28;20089;-71
2024/03/14 10:18:26;;;;;;;38.45;35.25;;;14.00;99.90;;;;;;4967846;28;20185;-71
2024/03/14 10:20:55;;;;;;;40.97;37.83;;;14.10;99.90;;;;;;4975782;28;20050;-70
2024/03/14 10:23:22;;;;;;;44.83;41.42;;;14.10;99.90;;;;;;4974305;28;20374;-70
2024/03/14 10:25:53;;;;;;;43.70;40.50;;;14.30;99.90;;;;;;4974249;28;20054;-71
2024/03/14 10:28:28;;;;;;;38.75;36.00;;;14.20;99.90;;;;;;4971337;28;20046;-68
2024/03/14 10:30:57;;;;;;;38.58;35.53;;;14.30;99.90;;;;;;4971677;28;20138;-70
2024/03/14 10:33:27;;;;;;;37.10;34.30;;;14.30;99.90;;;;;;4973108;28;20140;-68
2024/03/14 10:36:00;;;;;;;46.20;42.53;;;14.40;99.90;;;;;;4970201;28;20145;-68
2024/03/14 10:38:35;;;;;;;45.60;42.30;;;14.30;99.90;;;;;;4973255;28;20050;-69
2024/03/14 10:41:05;;;;;;;44.80;41.50;;;14.50;99.90;;;;;;4977621;28;20045;-70
2024/03/14 10:43:42;;;;;;;45.17;41.90;;;14.40;99.90;;;;;;4967269;28;20057;-69
2024/03/14 10:46:15;;;;;;;44.60;41.40;;;14.40;99.90;;;;;;4964295;28;20061;-69
2024/03/14 10:48:44;;;;;;;44.75;41.60;;;14.30;99.90;;;;;;4971328;28;21779;-70
2024/03/14 10:51:14;;;;;;;43.80;40.42;;;14.50;99.90;;;;;;4988525;28;20042;-70
2024/03/14 10:53:41;;;;;;;43.25;40.15;;;14.60;99.90;;;;;;4970101;28;20470;-69
2024/03/14 10:56:22;;;;;;;42.45;39.08;;;14.70;99.90;;;;;;4968683;28;20046;-70
2024/03/14 10:58:58;;;;;;;42.95;39.97;;;14.90;99.90;;;;;;4985658;28;20630;-70
2024/03/14 11:01:28;;;;;;;43.92;40.83;;;14.90;99.90;;;;;;4966597;28;20043;-70
2024/03/14 11:03:55;;;;;;;44.72;41.50;;;14.60;99.90;;;;;;4950302;28;20946;-69
2024/03/14 11:06:27;;;;;;;45.22;42.03;;;14.60;99.90;;;;;;4960615;28;20101;-68
2024/03/14 11:08:59;;;;;;;42.85;39.95;;;14.70;99.90;;;;;;4969934;28;20133;-70
2024/03/14 11:11:29;;;;;;;41.72;38.90;;;14.90;99.90;;;;;;4971029;28;20050;-69
2024/03/14 11:13:57;;;;;;;40.60;37.65;;;15.20;99.90;;;;;;4988344;28;20046;-70
2024/03/14 11:16:28;;;;;;;40.63;37.63;;;15.30;99.90;;;;;;4963989;28;21251;-68
2024/03/14 11:18:59;;;;;;;41.28;37.95;;;15.20;99.90;;;;;;4960116;28;20086;-68
2024/03/14 11:21:32;;;;;;;41.00;37.83;;;15.20;99.90;;;;;;4969429;28;20149;-69
2024/03/14 11:24:02;;;;;;;40.00;37.00;;;15.20;99.90;;;;;;4985973;28;20042;-69
2024/03/14 11:26:34;;;;;;;39.47;36.65;;;15.10;99.90;;;;;;4966638;28;20062;-70
2024/03/14 11:29:03;;;;;;;40.45;37.67;;;15.10;99.90;;;;;;4968208;28;20051;-69
2024/03/14 11:31:44;;;;;;;40.92;38.13;;;15.40;99.90;;;;;;4953657;28;20057;-70
2024/03/14 11:34:17;;;;;;;38.97;36.17;;;15.80;99.90;;;;;;4954270;28;20554;-71
2024/03/14 11:36:48;;;;;;;40.70;37.67;;;15.80;99.90;;;;;;4966789;28;20730;-69
2024/03/14 11:39:20;;;;;;;40.88;37.88;;;15.50;99.90;;;;;;4970088;28;20046;-69
2024/03/14 11:41:50;;;;;;;40.10;37.42;;;15.60;99.90;;;;;;4970395;28;20053;-71
2024/03/14 11:44:20;;;;;;;40.22;37.53;;;15.70;99.90;;;;;;4968747;28;20069;-69
2024/03/14 11:46:48;;;;;;;38.50;35.70;;;15.70;99.90;;;;;;4970934;28;20058;-70
2024/03/14 11:49:16;;;;;;;40.20;37.45;;;16.00;99.90;;;;;;4956105;28;20109;-69
2024/03/14 11:51:47;;;;;;;39.95;37.22;;;16.00;99.90;;;;;;4968965;28;20174;-70
2024/03/14 11:54:21;;;;;;;38.80;36.00;;;16.10;99.90;;;;;;4974237;28;20070;-71
2024/03/14 11:56:50;;;;;;;38.58;35.97;;;16.10;99.90;;;;;;4963945;28;20050;-69
2024/03/14 11:59:22;;;;;;;38.65;35.85;;;15.90;99.90;;;;;;4972509;28;20050;-69
2024/03/14 12:01:54;;;;;;;39.10;36.30;;;16.10;99.90;;;;;;4972851;28;20042;-71
2024/03/14 12:04:25;;;;;;;41.22;38.13;;;16.20;99.90;;;;;;4969025;28;20057;-71
2024/03/14 12:06:53;;;;;;;38.72;35.88;;;16.00;99.90;;;;;;4969304;28;20042;-71
2024/03/14 12:09:23;;;;;;;40.22;37.22;;;16.10;99.90;;;;;;4968686;28;20047;-71
2024/03/14 12:11:51;;;;;;;38.88;36.03;;;15.90;99.90;;;;;;4971009;28;20057;-70
2024/03/14 12:14:19;;;;;;;38.90;35.85;;;16.00;99.90;;;;;;4971736;28;20057;-71
2024/03/14 12:16:47;;;;;;;42.92;39.83;;;16.10;99.90;;;;;;4971248;28;20069;-69
2024/03/14 12:19:16;;;;;;;39.25;36.50;;;16.40;99.90;;;;;;4952552;28;20061;-70
2024/03/14 12:22:00;;;;;;;40.20;37.33;;;16.40;99.90;;;;;;4969663;28;20749;-70
2024/03/14 12:24:27;;;;;;;40.50;37.42;;;16.00;99.90;;;;;;4971949;28;20049;-71
2024/03/14 12:26:58;;;;;;;39.05;36.13;;;15.80;99.90;;;;;;4950498;28;20046;-72
2024/03/14 12:29:27;;;;;;;39.85;36.95;;;16.00;99.90;;;;;;4961579;28;20051;-71
2024/03/14 12:31:57;;;;;;;38.97;36.28;;;16.40;99.90;;;;;;4959723;28;20047;-71
2024/03/14 12:34:26;;;;;;;39.00;36.42;;;16.50;99.90;;;;;;4948976;28;20526;-72
2024/03/14 12:36:53;;;;;;;40.33;37.63;;;16.30;99.90;;;;;;4966039;28;20043;-71